Time;durP1;ratioP1;P1;durP2;ratioP2;P2;SDS_P1;SDS_P2;PMS_P1;PMS_P2;Temp;Humidity;BMP_temperature;BMP_pressure;BME280_temperature;BME280_humidity;BME280_pressure;Samples;Min_cycle;Max_cycle;Signal;HPM_P1;HPM_P2
2022/09/12 00:01:02;;;;;;;;;10.00;10.00;;;;;20.54;58.37;101049.00;5119943;27;45475;-70
2022/09/12 00:03:28;;;;;;;;;8.67;7.00;;;;;20.49;58.49;101033.66;5119121;27;45140;-70
2022/09/12 00:05:53;;;;;;;;;14.33;7.67;;;;;20.43;58.61;101030.09;5127081;27;45255;-75
2022/09/12 00:08:18;;;;;;;;;10.00;7.67;;;;;20.49;58.68;101045.44;5116994;27;56349;-70
2022/09/12 00:10:44;;;;;;;;;10.00;8.67;;;;;20.32;58.72;101013.00;5115734;27;59811;-70
2022/09/12 00:13:10;;;;;;;;;10.33;7.33;;;;;20.49;58.41;101049.94;5116527;27;45911;-72
2022/09/12 00:15:43;;;;;;;;;9.67;9.67;;;;;20.29;58.90;101014.88;5126601;27;45050;-71
2022/09/12 00:18:12;;;;;;;;;13.33;10.00;;;;;20.43;58.60;101032.81;5118360;27;45635;-69
2022/09/12 00:20:45;;;;;;;;;10.67;8.67;;;;;20.29;58.81;101010.31;5126289;27;44992;-70
2022/09/12 00:23:11;;;;;;;;;8.00;8.00;;;;;19.88;58.92;100936.59;5118493;27;45282;-71
2022/09/12 00:25:42;;;;;;;;;6.67;6.67;;;;;20.47;58.76;101035.50;5119784;27;45304;-71
2022/09/12 00:28:07;;;;;;;;;10.67;8.33;;;;;20.48;58.64;101027.34;5116859;27;45692;-67
2022/09/12 00:30:32;;;;;;;;;10.67;8.00;;;;;20.49;58.55;101022.81;5115747;27;60443;-76
2022/09/12 00:32:58;;;;;;;;;11.67;10.33;;;;;20.50;58.46;101019.19;5122052;27;45059;-72
2022/09/12 00:35:23;;;;;;;;;9.33;8.33;;;;;20.32;58.63;100995.84;5124685;27;45101;-73
2022/09/12 00:37:48;;;;;;;;;10.33;9.00;;;;;20.35;58.50;101001.25;5118006;27;62925;-76
2022/09/12 00:40:14;;;;;;;;;13.00;11.67;;;;;20.36;58.41;101001.22;5121185;27;53491;-69
2022/09/12 00:42:39;;;;;;;;;10.00;7.67;;;;;20.40;58.93;101008.41;5119824;27;45245;-73
2022/09/12 00:45:05;;;;;;;;;7.33;7.00;;;;;20.41;58.54;101012.06;5123365;27;45227;-73
2022/09/12 00:47:32;;;;;;;;;7.33;7.33;;;;;20.40;58.70;101000.28;5119989;27;46159;-70
2022/09/12 00:50:06;;;;;;;;;12.67;9.00;;;;;20.31;58.58;100989.53;5119637;27;45208;-75
2022/09/12 00:52:35;;;;;;;;;10.00;10.00;;;;;20.43;58.57;101004.78;5123097;27;45086;-71
2022/09/12 00:55:15;;;;;;;;;10.33;8.33;;;;;20.17;58.48;100951.66;5132262;27;45176;-72
2022/09/12 00:57:54;;;;;;;;;11.33;8.33;;;;;20.37;58.90;100992.16;5123375;27;45735;-73
2022/09/12 01:00:22;;;;;;;;;10.33;7.67;;;;;20.36;58.74;100987.66;5119551;27;45015;-70
2022/09/12 01:02:50;;;;;;;;;8.00;7.67;;;;;20.04;58.68;100933.72;5125599;27;45156;-74
2022/09/12 01:05:16;;;;;;;;;8.67;7.00;;;;;20.35;58.59;100984.97;5127765;27;45011;-78
2022/09/12 01:07:43;;;;;;;;;8.33;7.00;;;;;20.17;58.80;100957.09;5112744;27;45248;-70
2022/09/12 01:10:10;;;;;;;;;12.00;8.67;;;;;19.98;58.72;100937.41;5122897;27;45258;-74
2022/09/12 01:12:38;;;;;;;;;9.33;8.33;;;;;20.28;58.95;100989.56;5122425;27;45211;-70
2022/09/12 01:15:04;;;;;;;;;5.67;5.67;;;;;20.00;58.54;100945.53;5113263;27;45150;-76
2022/09/12 01:17:40;;;;;;;;;16.00;7.00;;;;;20.16;58.73;100962.53;5120327;27;45509;-74
2022/09/12 01:20:30;;;;;;;;;6.33;6.00;;;;;20.25;58.89;100981.44;5112902;27;45122;-77
2022/09/12 01:23:50;;;;;;;;;9.33;7.33;;;;;20.20;59.00;100983.31;5117615;27;45231;-70
2022/09/12 01:26:52;;;;;;;;;9.67;7.00;;;;;20.18;59.09;100977.91;5072197;28;45408;-69
2022/09/12 01:29:42;;;;;;;;;8.67;8.00;;;;;20.16;59.26;100981.53;5119501;27;45602;-78
2022/09/12 01:32:16;;;;;;;;;10.33;6.67;;;;;20.12;59.14;100974.34;5115499;27;45000;-76
2022/09/12 01:34:53;;;;;;;;;12.33;7.00;;;;;20.12;59.39;100960.78;5116592;27;45145;-70
2022/09/12 01:37:33;;;;;;;;;5.67;5.67;;;;;20.01;59.26;100944.59;5116446;27;46437;-72
2022/09/12 01:40:09;;;;;;;;;5.67;5.67;;;;;19.91;58.99;100923.91;5122210;27;45909;-78
2022/09/12 01:43:00;;;;;;;;;6.67;6.33;;;;;20.12;59.01;100955.34;5116377;27;45056;-73
2022/09/12 01:45:36;;;;;;;;;7.67;6.00;;;;;20.08;59.35;100949.06;5123476;27;45193;-77
2022/09/12 01:48:03;;;;;;;;;6.67;6.00;;;;;19.87;59.60;100936.59;5124048;27;45269;-72
2022/09/12 01:50:39;;;;;;;;;11.33;8.00;;;;;19.99;59.71;100954.56;5116147;27;45485;-69
2022/09/12 01:53:18;;;;;;;;;9.00;5.33;;;;;19.40;59.56;100854.75;5123168;27;45212;-69
2022/09/12 01:55:50;;;;;;;;;9.33;9.33;;;;;19.90;59.43;100939.28;5126864;27;45830;-73
2022/09/12 01:58:28;;;;;;;;;6.00;6.00;;;;;19.99;59.58;100952.75;5117824;27;45035;-76
2022/09/12 02:01:01;;;;;;;;;6.33;6.33;;;;;19.89;59.58;100937.47;5120507;27;45103;-70
2022/09/12 02:03:57;;;;;;;;;8.33;6.00;;;;;19.92;59.69;100932.03;5121906;27;45339;-71
2022/09/12 02:06:30;;;;;;;;;10.00;8.33;;;;;20.02;59.49;100955.44;5118233;27;45154;-72
2022/09/12 02:09:02;;;;;;;;;9.33;8.67;;;;;20.03;59.51;100953.63;5113693;27;45146;-69
2022/09/12 02:11:32;;;;;;;;;11.67;7.33;;;;;20.04;59.26;100953.59;5118057;27;46140;-73
2022/09/12 02:14:12;;;;;;;;;10.33;8.00;;;;;20.03;59.59;100950.94;5119103;27;45044;-68
2022/09/12 02:16:53;;;;;;;;;6.00;5.33;;;;;19.96;59.47;100946.44;5118330;27;45235;-75
2022/09/12 02:19:22;;;;;;;;;8.67;6.67;;;;;19.89;59.68;100943.78;5121537;27;45141;-71
2022/09/12 02:21:54;;;;;;;;;11.00;7.33;;;;;19.65;59.74;100904.22;5118092;27;46018;-76
2022/09/12 02:24:23;;;;;;;;;9.33;6.00;;;;;19.90;59.83;100939.28;5118423;27;45226;-78
2022/09/12 02:27:23;;;;;;;;;6.67;5.00;;;;;19.61;59.73;100891.59;5117408;27;45078;-70
2022/09/12 02:29:49;;;;;;;;;9.33;6.67;;;;;19.91;59.79;100935.63;5117679;27;45643;-74
2022/09/12 02:32:25;;;;;;;;;8.33;7.00;;;;;19.93;59.54;100936.56;5120183;27;45456;-69
2022/09/12 02:34:58;;;;;;;;;7.33;6.00;;;;;19.74;59.84;100907.75;5121256;27;45281;-71
2022/09/12 02:37:26;;;;;;;;;7.00;6.00;;;;;19.91;59.77;100924.78;5122452;27;45051;-74
2022/09/12 02:39:54;;;;;;;;;4.67;4.67;;;;;19.66;59.84;100889.72;5120872;27;45158;-70
2022/09/12 02:42:20;;;;;;;;;6.00;6.00;;;;;19.93;59.52;100932.91;5119303;27;45220;-73
2022/09/12 02:44:45;;;;;;;;;7.33;6.33;;;;;19.94;59.71;100927.47;5121579;27;45521;-80
2022/09/12 02:47:20;;;;;;;;;5.00;5.00;;;;;19.92;59.59;100929.31;5118348;27;45098;-73
2022/09/12 02:49:46;;;;;;;;;6.00;5.00;;;;;19.68;59.90;100882.50;5110131;27;45357;-71
2022/09/12 02:52:11;;;;;;;;;9.33;6.00;;;;;19.88;59.86;100906.75;5118734;27;46149;-71
2022/09/12 02:54:38;;;;;;;;;10.00;8.33;;;;;19.70;59.83;100877.97;5120839;27;45252;-75
2022/09/12 02:57:15;;;;;;;;;5.67;5.00;;;;;19.82;60.11;100904.09;5116536;27;45005;-71
2022/09/12 02:59:41;;;;;;;;;13.33;8.33;;;;;19.87;59.95;100909.47;5121209;27;44963;-71
2022/09/12 03:02:32;;;;;;;;;7.33;5.33;;;;;19.89;59.69;100910.34;5112875;27;45545;-70
2022/09/12 03:05:40;;;;;;;;;17.00;12.67;;;;;19.88;59.71;100898.63;5112909;27;45627;-78
2022/09/12 03:08:17;;;;;;;;;8.00;6.67;;;;;19.89;59.65;100903.09;5115742;27;45170;-68
2022/09/12 03:10:51;;;;;;;;;8.67;7.33;;;;;19.87;59.69;100898.63;5109654;27;45060;-72
2022/09/12 03:13:35;;;;;;;;;7.67;6.00;;;;;19.67;59.78;100864.44;5120890;27;45182;-71
2022/09/12 03:16:18;;;;;;;;;7.33;6.33;;;;;19.68;59.73;100855.41;5117662;27;45196;-73
2022/09/12 03:18:54;;;;;;;;;6.00;6.00;;;;;19.83;59.86;100877.88;5119175;27;45149;-75
2022/09/12 03:22:13;;;;;;;;;8.00;6.00;;;;;19.85;59.78;100890.50;5115895;27;45178;-75
2022/09/12 03:25:10;;;;;;;;;7.67;5.33;;;;;19.50;59.75;100823.03;5105490;27;45616;-72
2022/09/12 03:27:41;;;;;;;;;9.33;6.33;;;;;19.85;59.67;100892.34;5092547;27;45197;-73
2022/09/12 03:30:09;;;;;;;;;7.00;7.00;;;;;19.82;59.97;100892.34;5117488;27;45220;-75
2022/09/12 03:32:54;;;;;;;;;10.00;7.00;;;;;19.80;59.91;100875.19;5114294;27;45156;-76
2022/09/12 03:35:22;;;;;;;;;6.33;6.33;;;;;19.72;59.93;100869.81;5124487;27;46143;-75
2022/09/12 03:37:49;;;;;;;;;9.67;7.00;;;;;19.75;60.12;100872.53;5113118;27;45339;-74
2022/09/12 03:40:15;;;;;;;;;8.33;6.00;;;;;19.64;60.31;100869.88;5129253;27;45074;-76
2022/09/12 03:42:41;;;;;;;;;8.67;6.33;;;;;19.50;60.22;100845.63;5123003;27;45299;-69
2022/09/12 03:45:08;;;;;;;;;9.33;9.33;;;;;19.66;60.56;100873.47;5117229;27;45137;-71
2022/09/12 03:47:34;;;;;;;;;11.33;10.33;;;;;19.62;60.76;100866.28;5116311;27;45180;-74
2022/09/12 03:49:59;;;;;;;;;8.33;6.67;;;;;19.60;60.78;100856.38;5128800;27;45314;-70
2022/09/12 03:52:24;;;;;;;;;8.33;7.00;;;;;19.64;60.65;100869.88;5121686;27;45144;-69
2022/09/12 03:54:50;;;;;;;;;10.67;7.33;;;;;19.57;60.83;100856.38;5118098;27;62131;-70
2022/09/12 03:57:17;;;;;;;;;6.00;6.00;;;;;19.50;60.74;100860.97;5124054;27;45128;-73
2022/09/12 03:59:42;;;;;;;;;7.00;6.00;;;;;19.29;60.83;100844.00;5120205;27;45013;-69
2022/09/12 04:02:11;;;;;;;;;6.67;6.00;;;;;19.44;61.15;100864.66;5116230;27;46341;-70
2022/09/12 04:04:36;;;;;;;;;8.33;7.00;;;;;19.44;60.96;100875.47;5111810;27;45638;-69
2022/09/12 04:07:02;;;;;;;;;10.00;10.00;;;;;19.30;60.95;100850.31;5120160;27;45022;-70
2022/09/12 04:09:27;;;;;;;;;12.33;6.00;;;;;19.39;60.97;100873.72;5117232;27;44979;-69
2022/09/12 04:11:53;;;;;;;;;3.67;2.33;;;;;19.18;60.70;100836.88;5117903;27;45340;-68
2022/09/12 04:14:18;;;;;;;;;7.00;7.00;;;;;19.42;60.89;100874.59;5116851;27;45174;-69
2022/09/12 04:16:43;;;;;;;;;12.33;6.00;;;;;19.37;60.83;100868.31;5114018;27;49769;-75
2022/09/12 04:19:10;;;;;;;;;11.67;8.33;;;;;19.46;60.64;100878.19;5114094;27;52418;-72
2022/09/12 04:21:35;;;;;;;;;6.00;6.00;;;;;19.33;60.82;100861.13;5119109;27;45456;-71
2022/09/12 04:24:01;;;;;;;;;10.67;6.33;;;;;19.46;60.73;100887.19;5124301;27;46462;-70
2022/09/12 04:26:28;;;;;;;;;7.00;6.33;;;;;19.39;60.75;100879.16;5117189;27;45112;-72
2022/09/12 04:28:55;;;;;;;;;9.67;9.67;;;;;19.31;60.73;100861.13;5120916;27;45301;-73
2022/09/12 04:31:21;;;;;;;;;8.00;7.67;;;;;19.35;60.83;100853.88;5115207;27;45351;-74
2022/09/12 04:33:51;;;;;;;;;8.33;6.33;;;;;19.49;60.61;100884.47;5121466;27;45027;-71
2022/09/12 04:36:17;;;;;;;;;10.00;6.67;;;;;19.48;60.59;100879.06;5127241;27;45181;-68
2022/09/12 04:38:44;;;;;;;;;15.33;7.00;;;;;19.50;60.64;100880.84;5121291;27;45134;-74
2022/09/12 04:41:12;;;;;;;;;6.00;6.00;;;;;19.25;60.76;100828.66;5125241;27;45075;-74
2022/09/12 04:43:37;;;;;;;;;11.00;6.67;;;;;19.36;60.67;100858.38;5124976;27;45714;-68
2022/09/12 04:46:14;;;;;;;;;11.00;7.00;;;;;19.29;60.84;100859.34;5118274;27;45078;-69
2022/09/12 04:48:40;;;;;;;;;6.67;6.67;;;;;19.37;60.89;100876.44;5115376;27;45475;-78
2022/09/12 04:51:10;;;;;;;;;9.00;6.67;;;;;19.29;60.97;100868.38;5113533;27;46038;-68
2022/09/12 04:53:36;;;;;;;;;6.67;5.33;;;;;19.09;61.04;100835.09;5122556;27;45189;-70
2022/09/12 04:56:03;;;;;;;;;9.67;8.33;;;;;19.26;61.06;100865.69;5117506;27;44984;-75
2022/09/12 04:58:31;;;;;;;;;7.00;7.00;;;;;19.23;61.21;100865.69;5123636;27;45252;-69
2022/09/12 05:01:06;;;;;;;;;6.00;6.00;;;;;18.91;61.44;100807.28;5117611;27;45519;-73
2022/09/12 05:03:32;;;;;;;;;6.00;6.00;;;;;19.04;61.34;100827.03;5123004;27;45525;-74
2022/09/12 05:05:57;;;;;;;;;8.00;6.00;;;;;19.02;61.57;100830.66;5117188;27;46363;-72
2022/09/12 05:08:22;;;;;;;;;10.67;8.33;;;;;19.08;61.65;100838.75;5121572;27;45181;-75
2022/09/12 05:10:48;;;;;;;;;9.67;6.67;;;;;19.27;61.35;100855.75;5118977;27;45105;-70
2022/09/12 05:13:13;;;;;;;;;4.00;4.00;;;;;19.29;61.39;100856.66;5117272;27;45257;-70
2022/09/12 05:15:38;;;;;;;;;20.33;18.00;;;;;19.30;61.30;100848.50;5118778;27;50642;-68
2022/09/12 05:18:05;;;;;;;;;9.67;8.67;;;;;18.95;61.21;100787.38;5115932;27;45516;-69
2022/09/12 05:20:32;;;;;;;;;6.33;6.33;;;;;19.21;61.07;100834.13;5118616;27;45202;-69
2022/09/12 05:22:58;;;;;;;;;6.33;6.33;;;;;19.27;60.95;100858.44;5114133;27;45290;-69
2022/09/12 05:25:24;;;;;;;;;9.67;8.33;;;;;19.17;61.02;100830.53;5120332;27;45551;-75
2022/09/12 05:27:51;;;;;;;;;9.67;9.33;;;;;19.35;61.38;100859.28;5117621;27;45475;-68
2022/09/12 05:30:17;;;;;;;;;9.33;8.33;;;;;19.20;60.99;100833.22;5116522;27;45328;-70
2022/09/12 05:32:42;;;;;;;;;8.33;7.33;;;;;19.21;60.83;100831.44;5116484;27;56995;-68
2022/09/12 05:35:07;;;;;;;;;13.33;7.67;;;;;19.31;60.84;100855.72;5114830;27;57097;-75
2022/09/12 05:37:33;;;;;;;;;8.00;7.67;;;;;18.98;60.82;100796.41;5113403;27;45234;-71
2022/09/12 05:39:58;;;;;;;;;9.00;6.33;;;;;19.21;60.93;100842.25;5113556;27;45325;-70
2022/09/12 05:42:24;;;;;;;;;8.00;8.00;;;;;19.24;60.92;100839.53;5110327;27;45918;-68
2022/09/12 05:44:49;;;;;;;;;11.00;9.67;;;;;19.23;60.83;100844.03;5113011;27;45035;-74
2022/09/12 05:47:16;;;;;;;;;8.33;7.00;;;;;19.31;60.71;100852.09;5108241;27;48185;-74
2022/09/12 05:49:43;;;;;;;;;21.67;21.00;;;;;19.19;60.95;100833.22;5120033;27;45395;-68
2022/09/12 05:52:08;;;;;;;;;15.33;10.00;;;;;19.28;60.81;100844.91;5113533;27;45464;-70
2022/09/12 05:54:34;;;;;;;;;6.00;5.67;;;;;19.21;60.59;100832.31;5112682;27;45386;-69
2022/09/12 05:56:59;;;;;;;;;12.33;12.33;;;;;19.37;60.52;100861.97;5122925;27;45089;-72
2022/09/12 05:59:24;;;;;;;;;6.33;6.00;;;;;19.34;60.54;100865.63;5114770;27;45528;-71
2022/09/12 06:01:51;;;;;;;;;9.33;8.33;;;;;19.28;60.44;100869.28;5102793;27;47164;-71
2022/09/12 06:04:16;;;;;;;;;11.67;8.33;;;;;19.13;60.91;100843.19;5103664;27;45507;-71
2022/09/12 06:06:47;;;;;;;;;5.33;5.33;;;;;19.28;60.86;100863.84;5102698;27;53823;-71
2022/09/12 06:09:14;;;;;;;;;9.67;7.67;;;;;19.32;60.59;100860.22;5114024;27;45029;-71
2022/09/12 06:11:40;;;;;;;;;12.33;9.00;;;;;19.34;60.91;100863.81;5117925;27;45581;-69
2022/09/12 06:14:06;;;;;;;;;9.67;9.00;;;;;19.36;60.96;100860.22;5108331;27;46039;-74
2022/09/12 06:16:33;;;;;;;;;9.00;7.00;;;;;19.39;61.08;100860.19;5106794;27;45481;-72
2022/09/12 06:19:19;;;;;;;;;9.00;8.33;;;;;19.13;60.90;100817.94;5105789;27;45723;-73
2022/09/12 06:21:47;;;;;;;;;8.00;6.67;;;;;19.41;60.67;100866.47;5098659;27;45951;-70
2022/09/12 06:24:12;;;;;;;;;9.00;9.00;;;;;19.36;60.60;100855.69;5098204;27;46240;-71
2022/09/12 06:26:38;;;;;;;;;8.33;8.33;;;;;19.37;60.54;100859.28;5098824;27;45412;-68
2022/09/12 06:29:04;;;;;;;;;8.33;6.67;;;;;19.38;60.26;100858.38;5096216;27;45717;-71
2022/09/12 06:31:32;;;;;;;;;14.67;11.67;;;;;19.15;60.30;100824.22;5094107;27;47332;-72
2022/09/12 06:34:06;;;;;;;;;11.67;11.00;;;;;19.48;60.24;100876.34;5110148;27;45814;-72
2022/09/12 06:36:35;;;;;;;;;11.00;11.00;;;;;19.29;59.97;100838.56;5099646;27;45396;-71
2022/09/12 06:39:06;;;;;;;;;12.00;8.67;;;;;19.49;59.50;100876.34;5097196;27;45313;-73
2022/09/12 06:41:33;;;;;;;;;14.67;12.33;;;;;19.50;60.02;100871.81;5095527;27;46202;-71
2022/09/12 06:43:59;;;;;;;;;9.00;6.67;;;;;19.55;59.79;100875.41;5094555;27;45439;-73
2022/09/12 06:46:26;;;;;;;;;17.33;9.67;;;;;19.20;59.91;100822.38;5094260;27;45395;-71
2022/09/12 06:48:52;;;;;;;;;9.67;9.67;;;;;19.38;59.44;100844.81;5104950;27;45434;-73
2022/09/12 06:51:21;;;;;;;;;17.67;11.67;;;;;19.18;59.86;100812.50;5099622;27;46825;-70
2022/09/12 06:53:48;;;;;;;;;10.00;10.00;;;;;19.27;59.88;100828.66;5097722;27;45471;-70
2022/09/12 06:56:21;;;;;;;;;9.33;8.33;;;;;19.52;59.95;100870.00;5101233;27;45425;-71
2022/09/12 06:58:48;;;;;;;;;10.67;8.67;;;;;19.66;59.65;100878.88;5100189;27;45531;-75
2022/09/12 07:01:15;;;;;;;;;10.67;10.33;;;;;19.69;59.44;100869.84;5098044;27;45469;-69
2022/09/12 07:03:42;;;;;;;;;9.67;9.67;;;;;19.26;59.35;100787.13;5098189;27;45439;-76
2022/09/12 07:06:14;;;;;;;;;10.00;9.33;;;;;19.78;58.95;100869.81;5096180;27;45393;-74
2022/09/12 07:08:40;;;;;;;;;12.33;8.00;;;;;19.74;59.10;100853.53;5096046;27;45467;-70
2022/09/12 07:11:10;;;;;;;;;9.67;7.00;;;;;19.85;58.96;100865.22;5105923;27;48164;-75
2022/09/12 07:13:36;;;;;;;;;11.67;10.33;;;;;19.87;58.82;100869.69;5099093;27;45501;-68
2022/09/12 07:16:03;;;;;;;;;7.33;7.00;;;;;19.85;58.66;100866.09;5101801;27;45474;-69
2022/09/12 07:18:28;;;;;;;;;20.00;18.00;;;;;19.93;58.51;100870.53;5104512;27;45496;-71
2022/09/12 07:20:54;;;;;;;;;19.33;12.33;;;;;19.66;58.62;100818.38;5102543;27;60295;-70
2022/09/12 07:23:19;;;;;;;;;11.67;9.33;;;;;20.02;58.35;100878.59;5108860;27;45418;-71
2022/09/12 07:25:52;;;;;;;;;10.33;9.67;;;;;19.92;58.11;100850.69;5103096;27;45499;-69
2022/09/12 07:28:17;;;;;;;;;11.00;9.33;;;;;19.91;57.84;100848.88;5097213;27;45447;-69
2022/09/12 07:30:43;;;;;;;;;9.00;9.00;;;;;20.07;57.79;100869.47;5097444;27;56389;-71
2022/09/12 07:33:08;;;;;;;;;8.67;8.33;;;;;19.95;57.95;100833.50;5101528;27;45475;-73
2022/09/12 07:35:33;;;;;;;;;8.67;8.67;;;;;20.18;57.52;100871.19;5097999;27;45419;-71
2022/09/12 07:37:59;;;;;;;;;9.00;8.00;;;;;20.01;57.21;100846.94;5101638;27;45634;-72
2022/09/12 07:40:24;;;;;;;;;11.33;9.67;;;;;20.12;57.55;100849.56;5096673;27;45637;-72
2022/09/12 07:42:49;;;;;;;;;16.00;12.33;;;;;20.30;57.35;100862.00;5096435;27;49646;-70
2022/09/12 07:45:15;;;;;;;;;11.67;9.67;;;;;20.37;56.97;100858.31;5093907;27;55432;-73
2022/09/12 07:47:40;;;;;;;;;9.67;8.33;;;;;20.43;56.64;100864.53;5094442;27;45380;-73
2022/09/12 07:50:06;;;;;;;;;9.33;9.33;;;;;20.34;56.58;100850.19;5100258;27;56127;-72
2022/09/12 07:52:31;;;;;;;;;8.00;8.00;;;;;20.48;56.38;100863.59;5100847;27;45601;-69
2022/09/12 07:54:57;;;;;;;;;5.67;5.33;;;;;20.48;55.95;100871.75;5105371;27;45355;-68
2022/09/12 07:57:22;;;;;;;;;9.33;8.00;;;;;20.37;56.13;100850.16;5108838;27;45299;-71
2022/09/12 07:59:48;;;;;;;;;12.00;10.33;;;;;20.54;56.29;100877.06;5100912;27;45593;-74
2022/09/12 08:02:13;;;;;;;;;12.67;11.33;;;;;20.58;55.64;100868.88;5101172;27;45415;-71
2022/09/12 08:04:40;;;;;;;;;11.33;9.33;;;;;20.56;55.89;100872.56;5101978;27;59765;-73
2022/09/12 08:07:07;;;;;;;;;11.67;7.67;;;;;20.54;55.82;100858.06;5100099;27;45467;-72
2022/09/12 08:09:32;;;;;;;;;7.33;6.00;;;;;20.60;55.87;100855.28;5098618;27;46520;-70
2022/09/12 08:11:58;;;;;;;;;4.33;4.33;;;;;20.69;55.63;100860.66;5098178;27;45454;-71
2022/09/12 08:14:23;;;;;;;;;4.33;4.33;;;;;20.49;55.51;100808.38;5107747;27;58276;-68
2022/09/12 08:16:48;;;;;;;;;9.00;6.00;;;;;20.81;55.32;100854.13;5103320;27;45573;-72
2022/09/12 08:19:15;;;;;;;;;10.67;8.00;;;;;20.79;54.79;100854.16;5104772;27;55718;-72
2022/09/12 08:21:40;;;;;;;;;9.67;9.33;;;;;20.88;55.02;100863.09;5103004;27;45506;-76
2022/09/12 08:24:06;;;;;;;;;6.33;6.33;;;;;20.81;54.79;100835.13;5103876;27;56784;-74
2022/09/12 08:26:33;;;;;;;;;12.00;10.00;;;;;20.87;54.95;100845.00;5100595;27;45517;-71
2022/09/12 08:28:59;;;;;;;;;12.00;11.33;;;;;20.99;54.94;100837.56;5102055;27;45493;-75
2022/09/12 08:31:26;;;;;;;;;12.67;9.00;;;;;21.26;54.29;100858.91;5098850;27;45475;-69
2022/09/12 08:33:55;;;;;;;;;12.00;9.67;;;;;21.41;54.17;100861.34;5107296;27;45416;-70
2022/09/12 08:36:23;;;;;;;;;7.00;7.00;;;;;21.50;53.69;100847.66;5104447;27;45499;-72
2022/09/12 08:38:50;;;;;;;;;9.00;5.67;;;;;21.63;52.92;100855.56;5098026;27;46233;-71
2022/09/12 08:41:22;;;;;;;;;9.00;9.00;;;;;21.65;52.93;100849.19;5100949;27;45366;-75
2022/09/12 08:44:11;;;;;;;;;8.00;7.00;;;;;21.66;52.93;100844.66;5109805;27;45353;-74
2022/09/12 08:46:52;;;;;;;;;10.33;5.00;;;;;21.64;52.92;100850.13;5097861;27;45553;-73
2022/09/12 08:49:36;;;;;;;;;13.33;9.67;;;;;21.62;53.32;100845.66;5096919;27;46545;-69
2022/09/12 08:52:10;;;;;;;;;6.00;6.00;;;;;21.64;52.94;100844.69;5106139;27;45362;-70
2022/09/12 08:54:37;;;;;;;;;11.33;8.33;;;;;21.74;52.80;100850.84;5104640;27;45503;-71
2022/09/12 08:57:04;;;;;;;;;9.67;8.67;;;;;21.84;52.41;100851.56;5098345;27;45470;-71
2022/09/12 08:59:37;;;;;;;;;5.00;5.00;;;;;21.89;52.14;100853.31;5101761;27;46556;-69
2022/09/12 09:02:13;;;;;;;;;8.00;6.33;;;;;22.02;52.13;100855.78;5102603;27;45249;-68
2022/09/12 09:04:51;;;;;;;;;5.33;5.33;;;;;22.15;51.77;100857.31;5099609;27;45503;-71
2022/09/12 09:07:43;;;;;;;;;4.33;4.33;;;;;22.20;50.91;100836.34;5100558;27;45404;-70
2022/09/12 09:10:25;;;;;;;;;8.00;7.33;;;;;22.33;50.84;100836.16;5098303;27;45447;-69
2022/09/12 09:14:46;;;;;;;;;5.00;4.67;;;;;22.54;50.77;100834.81;5096391;27;45486;-69
2022/09/12 09:16:29;;;;;;;;;10.33;7.00;;;;;22.73;50.16;100836.16;5102628;27;45880;-71
2022/09/12 09:18:57;;;;;;;;;11.33;9.67;;;;;22.93;49.00;100819.38;5115158;27;45379;-68
2022/09/12 09:21:30;;;;;;;;;5.67;5.00;;;;;23.50;47.72;100836.19;5116870;27;45546;-71
2022/09/12 09:24:10;;;;;;;;;4.33;4.33;;;;;24.16;46.68;100833.53;5104520;27;45365;-71
2022/09/12 09:27:00;;;;;;;;;7.67;7.67;;;;;24.56;45.31;100811.41;5102799;27;45284;-70
2022/09/12 09:29:34;;;;;;;;;6.67;6.33;;;;;24.53;45.51;100786.00;5100801;27;45843;-71
2022/09/12 09:32:03;;;;;;;;;6.67;6.67;;;;;24.64;45.24;100817.53;5097980;27;46491;-69
2022/09/12 09:34:30;;;;;;;;;7.00;4.33;;;;;24.67;45.38;100811.09;5098448;27;45500;-70
2022/09/12 09:37:02;;;;;;;;;11.00;7.67;;;;;24.64;45.57;100806.59;5102114;27;45609;-67
2022/09/12 09:39:45;;;;;;;;;13.33;6.67;;;;;24.54;45.14;100809.66;5101494;27;45455;-71
2022/09/12 09:42:23;;;;;;;;;8.00;6.67;;;;;24.36;45.79;100798.34;5111081;27;46335;-69
2022/09/12 09:44:53;;;;;;;;;13.00;6.00;;;;;24.41;45.67;100810.00;5098855;27;45547;-71
2022/09/12 09:47:18;;;;;;;;;6.00;5.33;;;;;24.00;45.88;100743.88;5100421;27;45519;-76
2022/09/12 09:49:44;;;;;;;;;9.33;8.00;;;;;24.56;46.29;100807.81;5099565;27;45570;-69
2022/09/12 09:52:14;;;;;;;;;7.00;7.00;;;;;24.61;45.24;100782.13;5105425;27;45401;-75
2022/09/12 09:54:52;;;;;;;;;8.67;8.00;;;;;24.86;45.37;100795.00;5104386;27;45459;-72
2022/09/12 09:57:32;;;;;;;;;4.67;4.00;;;;;24.98;44.54;100802.81;5101186;27;45476;-70
2022/09/12 09:59:58;;;;;;;;;4.33;4.33;;;;;25.00;43.61;100795.44;5103636;27;45450;-70
2022/09/12 10:02:24;;;;;;;;;5.33;5.33;;;;;24.89;44.29;100756.63;5106445;27;58648;-71
2022/09/12 10:04:56;;;;;;;;;8.00;6.33;;;;;25.17;43.37;100789.41;5097306;27;45466;-69
2022/09/12 10:07:22;;;;;;;;;8.67;8.67;;;;;25.24;43.17;100775.53;5098324;27;45535;-71
2022/09/12 10:10:15;;;;;;;;;6.33;6.33;;;;;25.47;42.57;100788.44;5097746;27;45288;-70
2022/09/12 10:12:41;;;;;;;;;8.67;5.00;;;;;25.52;42.16;100778.25;5095780;27;48218;-72
2022/09/12 10:15:25;;;;;;;;;7.67;6.00;;;;;25.35;41.90;100737.81;5101716;27;45364;-71
2022/09/12 10:17:51;;;;;;;;;3.67;3.67;;;;;25.45;41.60;100766.63;5102358;27;45352;-76
2022/09/12 10:20:43;;;;;;;;;3.67;3.67;;;;;25.53;42.29;100764.50;5102832;27;45383;-71
2022/09/12 10:23:17;;;;;;;;;5.67;5.67;;;;;25.55;41.77;100767.19;5096477;27;46158;-68
2022/09/12 10:25:58;;;;;;;;;5.33;4.33;;;;;25.51;41.46;100752.75;5098787;27;45324;-70
2022/09/12 10:28:44;;;;;;;;;8.00;6.00;;;;;25.58;41.12;100763.47;5098993;27;45433;-71
2022/09/12 10:31:15;;;;;;;;;3.00;3.00;;;;;25.55;41.32;100769.94;5104454;27;45434;-70
2022/09/12 10:33:46;;;;;;;;;4.00;2.33;;;;;25.50;41.09;100763.72;5104349;27;46646;-73
2022/09/12 10:36:12;;;;;;;;;5.00;3.67;;;;;25.51;40.92;100762.78;5102923;27;45534;-73
2022/09/12 10:38:37;;;;;;;;;2.33;2.00;;;;;25.49;40.45;100757.38;5099796;27;45415;-71
2022/09/12 10:41:09;;;;;;;;;3.00;3.00;;;;;25.49;41.45;100751.91;5115688;27;45458;-69
2022/09/12 10:43:37;;;;;;;;;6.67;4.00;;;;;25.63;41.74;100764.19;5096803;27;45547;-68
2022/09/12 10:46:15;;;;;;;;;5.00;4.00;;;;;25.60;41.57;100765.19;5096413;27;45226;-69
2022/09/12 10:48:44;;;;;;;;;6.00;6.00;;;;;25.47;42.12;100739.22;5095117;27;45499;-72
2022/09/12 10:51:27;;;;;;;;;6.00;6.00;;;;;25.59;42.22;100768.88;5096946;27;45521;-70
2022/09/12 10:53:58;;;;;;;;;4.33;2.67;;;;;25.59;41.82;100757.03;5102282;27;45906;-70
2022/09/12 10:56:34;;;;;;;;;5.33;5.33;;;;;25.48;43.42;100746.50;5103097;27;45353;-70
2022/09/12 10:59:30;;;;;;;;;4.00;4.00;;;;;25.42;41.69;100720.22;5099357;27;45306;-69
2022/09/12 11:02:01;;;;;;;;;6.00;3.00;;;;;25.61;41.90;100752.41;5097716;27;45493;-70
2022/09/12 11:04:51;;;;;;;;;5.33;4.00;;;;;25.62;41.65;100752.34;5097194;27;47025;-69
2022/09/12 11:07:34;;;;;;;;;2.67;1.33;;;;;25.59;42.13;100747.00;5096831;27;45576;-70
2022/09/12 11:10:25;;;;;;;;;3.33;3.00;;;;;25.59;42.36;100751.56;5109714;27;45427;-69
2022/09/12 11:13:02;;;;;;;;;4.33;2.67;;;;;25.56;41.71;100741.63;5094747;27;45471;-69
2022/09/12 11:16:15;;;;;;;;;4.00;4.00;;;;;25.50;42.60;100734.53;5093513;27;46289;-69
2022/09/12 11:19:02;;;;;;;;;4.00;2.33;;;;;25.59;41.83;100749.75;5089197;27;45535;-72
2022/09/12 11:21:34;;;;;;;;;3.33;3.33;;;;;25.61;42.11;100753.31;5085614;27;45465;-72
2022/09/12 11:24:34;;;;;;;;;3.00;3.00;;;;;25.66;41.26;100754.03;5095548;27;45517;-72
2022/09/12 11:27:06;;;;;;;;;3.00;2.67;;;;;25.70;40.77;100754.81;5090247;27;45593;-71
2022/09/12 11:29:48;;;;;;;;;3.33;2.33;;;;;25.73;40.84;100750.09;5092596;27;45332;-72
2022/09/12 11:32:40;;;;;;;;;2.33;2.00;;;;;25.73;41.06;100744.63;5100912;27;45397;-71
2022/09/12 11:35:19;;;;;;;;;1.67;1.67;;;;;25.68;41.01;100738.44;5107055;27;45720;-71
2022/09/12 11:38:04;;;;;;;;;2.67;2.67;;;;;25.65;40.24;100730.34;5119999;27;47547;-68
2022/09/12 11:40:47;;;;;;;;;4.00;4.00;;;;;25.69;40.33;100722.91;5100488;27;45281;-69
2022/09/12 11:43:22;;;;;;;;;3.00;2.00;;;;;25.66;40.42;100703.88;5099415;27;45407;-69